sensor_id;sensor_type;location;lat;lon;timestamp;P1;durP1;ratioP1;P2;durP2;ratioP2
18296;SDS011;18066;52.106;5.534;2023-07-31T00:00:13;0.93;;;0.82;;
18296;SDS011;18066;52.106;5.534;2023-07-31T00:02:42;2.85;;;1.08;;
18296;SDS011;18066;52.106;5.534;2023-07-31T00:05:09;2.72;;;1.10;;
18296;SDS011;18066;52.106;5.534;2023-07-31T00:07:36;1.85;;;1.17;;
18296;SDS011;18066;52.106;5.534;2023-07-31T00:10:03;1.63;;;0.98;;
18296;SDS011;18066;52.106;5.534;2023-07-31T00:12:30;1.80;;;1.13;;
18296;SDS011;18066;52.106;5.534;2023-07-31T00:14:57;1.80;;;1.08;;
18296;SDS011;18066;52.106;5.534;2023-07-31T00:17:24;1.88;;;1.50;;
18296;SDS011;18066;52.106;5.534;2023-07-31T00:19:52;2.20;;;1.10;;
18296;SDS011;18066;52.106;5.534;2023-07-31T00:22:19;1.58;;;1.40;;
18296;SDS011;18066;52.106;5.534;2023-07-31T00:24:46;1.45;;;1.15;;
18296;SDS011;18066;52.106;5.534;2023-07-31T00:27:13;2.97;;;1.50;;
18296;SDS011;18066;52.106;5.534;2023-07-31T00:29:40;2.40;;;1.33;;
18296;SDS011;18066;52.106;5.534;2023-07-31T00:32:07;2.92;;;1.52;;
18296;SDS011;18066;52.106;5.534;2023-07-31T00:34:34;3.67;;;1.83;;
18296;SDS011;18066;52.106;5.534;2023-07-31T00:37:02;4.50;;;2.67;;
18296;SDS011;18066;52.106;5.534;2023-07-31T00:39:30;8.02;;;2.92;;
18296;SDS011;18066;52.106;5.534;2023-07-31T00:41:57;7.40;;;3.65;;
18296;SDS011;18066;52.106;5.534;2023-07-31T00:44:24;6.13;;;3.70;;
18296;SDS011;18066;52.106;5.534;2023-07-31T00:46:50;9.15;;;4.57;;
18296;SDS011;18066;52.106;5.534;2023-07-31T00:49:18;10.60;;;4.72;;
18296;SDS011;18066;52.106;5.534;2023-07-31T00:51:46;10.65;;;5.28;;
18296;SDS011;18066;52.106;5.534;2023-07-31T00:54:14;10.02;;;5.10;;
18296;SDS011;18066;52.106;5.534;2023-07-31T00:56:41;14.80;;;6.20;;
18296;SDS011;18066;52.106;5.534;2023-07-31T00:59:10;21.58;;;6.93;;
18296;SDS011;18066;52.106;5.534;2023-07-31T01:01:37;30.27;;;7.78;;
18296;SDS011;18066;52.106;5.534;2023-07-31T01:04:04;25.38;;;7.10;;
18296;SDS011;18066;52.106;5.534;2023-07-31T01:06:33;24.90;;;6.72;;
18296;SDS011;18066;52.106;5.534;2023-07-31T01:09:07;22.42;;;6.93;;
18296;SDS011;18066;52.106;5.534;2023-07-31T01:11:48;33.63;;;7.80;;
18296;SDS011;18066;52.106;5.534;2023-07-31T01:14:19;26.65;;;7.28;;
18296;SDS011;18066;52.106;5.534;2023-07-31T01:16:46;22.27;;;7.03;;
18296;SDS011;18066;52.106;5.534;2023-07-31T01:19:13;32.88;;;8.00;;
18296;SDS011;18066;52.106;5.534;2023-07-31T01:21:49;33.67;;;7.35;;
18296;SDS011;18066;52.106;5.534;2023-07-31T01:24:30;31.05;;;7.97;;
18296;SDS011;18066;52.106;5.534;2023-07-31T01:27:08;29.08;;;7.68;;
18296;SDS011;18066;52.106;5.534;2023-07-31T01:29:41;23.85;;;7.55;;
18296;SDS011;18066;52.106;5.534;2023-07-31T01:32:12;26.65;;;7.93;;
18296;SDS011;18066;52.106;5.534;2023-07-31T01:34:40;27.08;;;7.47;;
18296;SDS011;18066;52.106;5.534;2023-07-31T01:37:08;27.45;;;8.50;;
18296;SDS011;18066;52.106;5.534;2023-07-31T01:39:34;28.58;;;7.85;;
18296;SDS011;18066;52.106;5.534;2023-07-31T01:42:01;24.75;;;7.68;;
18296;SDS011;18066;52.106;5.534;2023-07-31T01:44:30;26.33;;;7.13;;
18296;SDS011;18066;52.106;5.534;2023-07-31T01:46:57;24.73;;;7.50;;
18296;SDS011;18066;52.106;5.534;2023-07-31T01:49:25;23.85;;;7.85;;
18296;SDS011;18066;52.106;5.534;2023-07-31T01:51:52;26.98;;;7.40;;
18296;SDS011;18066;52.106;5.534;2023-07-31T01:54:19;24.42;;;7.07;;
18296;SDS011;18066;52.106;5.534;2023-07-31T01:56:45;25.50;;;6.50;;
18296;SDS011;18066;52.106;5.534;2023-07-31T01:59:12;23.55;;;5.97;;
18296;SDS011;18066;52.106;5.534;2023-07-31T02:01:41;23.75;;;6.22;;
18296;SDS011;18066;52.106;5.534;2023-07-31T02:04:07;23.00;;;6.80;;
18296;SDS011;18066;52.106;5.534;2023-07-31T02:06:34;18.55;;;5.97;;
18296;SDS011;18066;52.106;5.534;2023-07-31T02:09:01;19.98;;;6.25;;
18296;SDS011;18066;52.106;5.534;2023-07-31T02:11:28;22.00;;;6.63;;
18296;SDS011;18066;52.106;5.534;2023-07-31T02:13:55;17.95;;;5.45;;
18296;SDS011;18066;52.106;5.534;2023-07-31T02:16:22;23.88;;;5.50;;
18296;SDS011;18066;52.106;5.534;2023-07-31T02:18:50;14.52;;;4.78;;
18296;SDS011;18066;52.106;5.534;2023-07-31T02:21:17;14.30;;;4.57;;
18296;SDS011;18066;52.106;5.534;2023-07-31T02:23:44;21.40;;;4.82;;
18296;SDS011;18066;52.106;5.534;2023-07-31T02:26:11;16.25;;;4.82;;
18296;SDS011;18066;52.106;5.534;2023-07-31T02:28:38;15.13;;;4.70;;
18296;SDS011;18066;52.106;5.534;2023-07-31T02:31:07;10.57;;;4.32;;
18296;SDS011;18066;52.106;5.534;2023-07-31T02:33:34;20.27;;;4.88;;
18296;SDS011;18066;52.106;5.534;2023-07-31T02:36:03;17.30;;;5.00;;
18296;SDS011;18066;52.106;5.534;2023-07-31T02:38:30;18.25;;;5.25;;
18296;SDS011;18066;52.106;5.534;2023-07-31T02:40:56;16.88;;;5.03;;
18296;SDS011;18066;52.106;5.534;2023-07-31T02:43:23;12.93;;;5.00;;
18296;SDS011;18066;52.106;5.534;2023-07-31T02:45:51;19.13;;;5.10;;
18296;SDS011;18066;52.106;5.534;2023-07-31T02:48:18;13.63;;;4.97;;
18296;SDS011;18066;52.106;5.534;2023-07-31T02:50:45;18.60;;;5.72;;
18296;SDS011;18066;52.106;5.534;2023-07-31T02:53:13;15.30;;;5.18;;
18296;SDS011;18066;52.106;5.534;2023-07-31T02:55:40;15.07;;;5.30;;
18296;SDS011;18066;52.106;5.534;2023-07-31T02:58:07;14.73;;;4.80;;
18296;SDS011;18066;52.106;5.534;2023-07-31T03:00:34;19.05;;;5.30;;
18296;SDS011;18066;52.106;5.534;2023-07-31T03:03:01;20.73;;;5.80;;
18296;SDS011;18066;52.106;5.534;2023-07-31T03:05:28;17.90;;;6.50;;
18296;SDS011;18066;52.106;5.534;2023-07-31T03:07:55;23.70;;;7.10;;
18296;SDS011;18066;52.106;5.534;2023-07-31T03:10:23;26.33;;;7.18;;
18296;SDS011;18066;52.106;5.534;2023-07-31T03:12:50;21.13;;;6.70;;
18296;SDS011;18066;52.106;5.534;2023-07-31T03:15:17;24.75;;;7.40;;
18296;SDS011;18066;52.106;5.534;2023-07-31T03:17:44;21.33;;;6.88;;
18296;SDS011;18066;52.106;5.534;2023-07-31T03:20:11;26.25;;;6.85;;
18296;SDS011;18066;52.106;5.534;2023-07-31T03:22:38;24.15;;;7.78;;
18296;SDS011;18066;52.106;5.534;2023-07-31T03:25:05;24.83;;;8.02;;
18296;SDS011;18066;52.106;5.534;2023-07-31T03:27:34;29.17;;;8.20;;
18296;SDS011;18066;52.106;5.534;2023-07-31T03:30:02;24.98;;;7.88;;
18296;SDS011;18066;52.106;5.534;2023-07-31T03:32:29;23.23;;;7.35;;
18296;SDS011;18066;52.106;5.534;2023-07-31T03:34:56;35.80;;;8.02;;
18296;SDS011;18066;52.106;5.534;2023-07-31T03:37:23;25.73;;;7.53;;
18296;SDS011;18066;52.106;5.534;2023-07-31T03:39:50;25.95;;;7.43;;
18296;SDS011;18066;52.106;5.534;2023-07-31T03:42:17;22.15;;;6.45;;
18296;SDS011;18066;52.106;5.534;2023-07-31T03:44:45;22.95;;;7.07;;
18296;SDS011;18066;52.106;5.534;2023-07-31T03:47:12;18.55;;;7.30;;
18296;SDS011;18066;52.106;5.534;2023-07-31T03:49:39;17.10;;;6.88;;
18296;SDS011;18066;52.106;5.534;2023-07-31T03:52:06;22.73;;;7.60;;
18296;SDS011;18066;52.106;5.534;2023-07-31T03:54:33;25.23;;;8.23;;
18296;SDS011;18066;52.106;5.534;2023-07-31T03:57:00;24.48;;;7.25;;
18296;SDS011;18066;52.106;5.534;2023-07-31T03:59:26;20.90;;;6.75;;
18296;SDS011;18066;52.106;5.534;2023-07-31T04:01:55;15.82;;;7.00;;
18296;SDS011;18066;52.106;5.534;2023-07-31T04:04:22;24.40;;;7.38;;
18296;SDS011;18066;52.106;5.534;2023-07-31T04:06:48;26.50;;;6.57;;
18296;SDS011;18066;52.106;5.534;2023-07-31T04:09:15;17.98;;;7.05;;
18296;SDS011;18066;52.106;5.534;2023-07-31T04:11:42;21.33;;;6.93;;
18296;SDS011;18066;52.106;5.534;2023-07-31T04:14:09;20.98;;;6.90;;
18296;SDS011;18066;52.106;5.534;2023-07-31T04:16:36;21.60;;;6.95;;
18296;SDS011;18066;52.106;5.534;2023-07-31T04:19:04;27.80;;;7.25;;
18296;SDS011;18066;52.106;5.534;2023-07-31T04:21:31;24.10;;;7.40;;
18296;SDS011;18066;52.106;5.534;2023-07-31T04:23:58;26.02;;;7.32;;
18296;SDS011;18066;52.106;5.534;2023-07-31T04:26:25;19.58;;;7.03;;
18296;SDS011;18066;52.106;5.534;2023-07-31T04:28:52;23.17;;;6.38;;
18296;SDS011;18066;52.106;5.534;2023-07-31T04:31:19;19.80;;;7.45;;
18296;SDS011;18066;52.106;5.534;2023-07-31T04:33:46;18.42;;;6.97;;
18296;SDS011;18066;52.106;5.534;2023-07-31T04:36:14;25.55;;;8.23;;
18296;SDS011;18066;52.106;5.534;2023-07-31T04:38:41;22.55;;;7.40;;
18296;SDS011;18066;52.106;5.534;2023-07-31T04:41:08;22.02;;;7.05;;
18296;SDS011;18066;52.106;5.534;2023-07-31T04:43:34;19.77;;;7.07;;
18296;SDS011;18066;52.106;5.534;2023-07-31T04:46:04;25.73;;;6.93;;
18296;SDS011;18066;52.106;5.534;2023-07-31T04:48:31;17.70;;;6.65;;
18296;SDS011;18066;52.106;5.534;2023-07-31T04:50:58;24.20;;;7.35;;
18296;SDS011;18066;52.106;5.534;2023-07-31T04:53:26;19.05;;;6.20;;
18296;SDS011;18066;52.106;5.534;2023-07-31T04:55:53;22.70;;;6.78;;
18296;SDS011;18066;52.106;5.534;2023-07-31T04:58:20;19.25;;;6.97;;
18296;SDS011;18066;52.106;5.534;2023-07-31T05:00:46;16.35;;;5.93;;
18296;SDS011;18066;52.106;5.534;2023-07-31T05:03:13;19.02;;;6.50;;
18296;SDS011;18066;52.106;5.534;2023-07-31T05:05:40;19.50;;;7.47;;
18296;SDS011;18066;52.106;5.534;2023-07-31T05:08:07;21.15;;;7.03;;
18296;SDS011;18066;52.106;5.534;2023-07-31T05:10:35;14.07;;;6.28;;
18296;SDS011;18066;52.106;5.534;2023-07-31T05:13:03;21.80;;;6.90;;
18296;SDS011;18066;52.106;5.534;2023-07-31T05:15:30;16.05;;;6.78;;
18296;SDS011;18066;52.106;5.534;2023-07-31T05:17:57;15.18;;;6.75;;
18296;SDS011;18066;52.106;5.534;2023-07-31T05:20:24;20.58;;;6.60;;
18296;SDS011;18066;52.106;5.534;2023-07-31T05:22:51;19.88;;;6.90;;
18296;SDS011;18066;52.106;5.534;2023-07-31T05:25:17;21.98;;;6.10;;
18296;SDS011;18066;52.106;5.534;2023-07-31T05:27:46;14.85;;;6.82;;
18296;SDS011;18066;52.106;5.534;2023-07-31T05:30:13;13.05;;;5.38;;
18296;SDS011;18066;52.106;5.534;2023-07-31T05:32:40;16.23;;;5.72;;
18296;SDS011;18066;52.106;5.534;2023-07-31T05:35:07;16.92;;;6.00;;
18296;SDS011;18066;52.106;5.534;2023-07-31T05:37:34;13.43;;;5.45;;
18296;SDS011;18066;52.106;5.534;2023-07-31T05:40:01;14.52;;;5.25;;
18296;SDS011;18066;52.106;5.534;2023-07-31T05:42:28;10.27;;;4.72;;
18296;SDS011;18066;52.106;5.534;2023-07-31T05:44:56;8.75;;;4.40;;
18296;SDS011;18066;52.106;5.534;2023-07-31T05:47:23;10.48;;;4.47;;
18296;SDS011;18066;52.106;5.534;2023-07-31T05:49:50;10.50;;;4.70;;
18296;SDS011;18066;52.106;5.534;2023-07-31T05:52:17;11.68;;;4.10;;
18296;SDS011;18066;52.106;5.534;2023-07-31T05:54:44;7.40;;;4.20;;
18296;SDS011;18066;52.106;5.534;2023-07-31T05:57:12;10.65;;;4.28;;
18296;SDS011;18066;52.106;5.534;2023-07-31T05:59:39;9.52;;;5.05;;
18296;SDS011;18066;52.106;5.534;2023-07-31T06:02:07;10.32;;;5.25;;
18296;SDS011;18066;52.106;5.534;2023-07-31T06:04:34;13.27;;;5.47;;
18296;SDS011;18066;52.106;5.534;2023-07-31T06:07:01;10.40;;;4.93;;
18296;SDS011;18066;52.106;5.534;2023-07-31T06:09:28;10.77;;;5.63;;
18296;SDS011;18066;52.106;5.534;2023-07-31T06:11:56;14.75;;;5.90;;
18296;SDS011;18066;52.106;5.534;2023-07-31T06:14:23;14.70;;;6.10;;
18296;SDS011;18066;52.106;5.534;2023-07-31T06:27:25;13.68;;;5.38;;
18296;SDS011;18066;52.106;5.534;2023-07-31T06:29:52;9.45;;;4.93;;
18296;SDS011;18066;52.106;5.534;2023-07-31T06:32:19;10.52;;;4.60;;
18296;SDS011;18066;52.106;5.534;2023-07-31T06:34:46;12.35;;;5.28;;
18296;SDS011;18066;52.106;5.534;2023-07-31T06:37:13;9.95;;;4.82;;
18296;SDS011;18066;52.106;5.534;2023-07-31T06:39:40;7.85;;;4.55;;
18296;SDS011;18066;52.106;5.534;2023-07-31T06:42:07;9.40;;;4.70;;
18296;SDS011;18066;52.106;5.534;2023-07-31T06:44:36;11.63;;;4.68;;
18296;SDS011;18066;52.106;5.534;2023-07-31T06:47:03;9.20;;;4.20;;
18296;SDS011;18066;52.106;5.534;2023-07-31T06:49:30;11.38;;;4.63;;
18296;SDS011;18066;52.106;5.534;2023-07-31T06:51:57;10.82;;;4.05;;
18296;SDS011;18066;52.106;5.534;2023-07-31T06:54:28;8.55;;;3.80;;
18296;SDS011;18066;52.106;5.534;2023-07-31T07:00:00;7.60;;;3.92;;
18296;SDS011;18066;52.106;5.534;2023-07-31T07:02:55;9.23;;;4.40;;
18296;SDS011;18066;52.106;5.534;2023-07-31T07:05:22;6.63;;;3.95;;
18296;SDS011;18066;52.106;5.534;2023-07-31T07:08:32;4.97;;;3.47;;
18296;SDS011;18066;52.106;5.534;2023-07-31T07:11:37;5.75;;;3.33;;
18296;SDS011;18066;52.106;5.534;2023-07-31T07:17:32;9.25;;;3.60;;
18296;SDS011;18066;52.106;5.534;2023-07-31T07:23:46;6.30;;;3.55;;
18296;SDS011;18066;52.106;5.534;2023-07-31T08:17:45;6.40;;;4.05;;
18296;SDS011;18066;52.106;5.534;2023-07-31T08:23:33;4.40;;;3.58;;
18296;SDS011;18066;52.106;5.534;2023-07-31T08:29:47;9.68;;;4.15;;
18296;SDS011;18066;52.106;5.534;2023-07-31T08:32:29;6.57;;;4.13;;
18296;SDS011;18066;52.106;5.534;2023-07-31T08:35:19;4.05;;;3.65;;
18296;SDS011;18066;52.106;5.534;2023-07-31T08:38:16;5.43;;;3.40;;
18296;SDS011;18066;52.106;5.534;2023-07-31T08:41:29;4.82;;;3.75;;
18296;SDS011;18066;52.106;5.534;2023-07-31T08:44:42;4.15;;;3.20;;
18296;SDS011;18066;52.106;5.534;2023-07-31T08:47:12;4.43;;;3.20;;
18296;SDS011;18066;52.106;5.534;2023-07-31T08:49:43;7.93;;;3.50;;
18296;SDS011;18066;52.106;5.534;2023-07-31T08:52:31;3.70;;;2.83;;
18296;SDS011;18066;52.106;5.534;2023-07-31T08:55:13;4.25;;;2.67;;
18296;SDS011;18066;52.106;5.534;2023-07-31T08:57:40;3.72;;;3.00;;
18296;SDS011;18066;52.106;5.534;2023-07-31T09:06:16;3.33;;;3.03;;
18296;SDS011;18066;52.106;5.534;2023-07-31T09:08:47;3.53;;;3.22;;
18296;SDS011;18066;52.106;5.534;2023-07-31T09:11:18;4.28;;;3.20;;
18296;SDS011;18066;52.106;5.534;2023-07-31T09:16:58;3.92;;;3.17;;
18296;SDS011;18066;52.106;5.534;2023-07-31T09:19:39;3.42;;;2.95;;
18296;SDS011;18066;52.106;5.534;2023-07-31T09:22:08;4.30;;;3.30;;
18296;SDS011;18066;52.106;5.534;2023-07-31T09:28:15;3.30;;;3.00;;
18296;SDS011;18066;52.106;5.534;2023-07-31T09:30:59;3.65;;;2.90;;
18296;SDS011;18066;52.106;5.534;2023-07-31T10:03:16;3.67;;;3.30;;
18296;SDS011;18066;52.106;5.534;2023-07-31T10:05:46;4.95;;;3.50;;
18296;SDS011;18066;52.106;5.534;2023-07-31T10:08:20;6.80;;;3.95;;
18296;SDS011;18066;52.106;5.534;2023-07-31T10:10:50;7.05;;;3.78;;
18296;SDS011;18066;52.106;5.534;2023-07-31T10:13:22;4.88;;;3.60;;
18296;SDS011;18066;52.106;5.534;2023-07-31T10:16:13;5.03;;;3.35;;
18296;SDS011;18066;52.106;5.534;2023-07-31T10:21:59;6.85;;;4.60;;
18296;SDS011;18066;52.106;5.534;2023-07-31T10:24:29;7.32;;;4.72;;
18296;SDS011;18066;52.106;5.534;2023-07-31T10:26:57;9.02;;;5.50;;
18296;SDS011;18066;52.106;5.534;2023-07-31T10:29:26;8.85;;;5.00;;
18296;SDS011;18066;52.106;5.534;2023-07-31T10:31:54;7.30;;;4.40;;
18296;SDS011;18066;52.106;5.534;2023-07-31T10:34:23;10.32;;;5.15;;
18296;SDS011;18066;52.106;5.534;2023-07-31T10:36:51;7.13;;;4.85;;
18296;SDS011;18066;52.106;5.534;2023-07-31T10:39:59;8.60;;;4.63;;
18296;SDS011;18066;52.106;5.534;2023-07-31T10:42:28;6.72;;;5.07;;
18296;SDS011;18066;52.106;5.534;2023-07-31T10:45:00;6.95;;;4.43;;
18296;SDS011;18066;52.106;5.534;2023-07-31T10:47:28;7.95;;;5.50;;
18296;SDS011;18066;52.106;5.534;2023-07-31T10:50:14;10.98;;;5.43;;
18296;SDS011;18066;52.106;5.534;2023-07-31T10:52:46;8.35;;;5.30;;
18296;SDS011;18066;52.106;5.534;2023-07-31T10:55:15;10.93;;;5.38;;
18296;SDS011;18066;52.106;5.534;2023-07-31T10:57:52;7.45;;;4.95;;
18296;SDS011;18066;52.106;5.534;2023-07-31T11:00:21;8.57;;;4.75;;
18296;SDS011;18066;52.106;5.534;2023-07-31T11:02:57;7.35;;;4.70;;
18296;SDS011;18066;52.106;5.534;2023-07-31T11:05:41;4.97;;;4.28;;
18296;SDS011;18066;52.106;5.534;2023-07-31T11:15:21;8.27;;;4.38;;
18296;SDS011;18066;52.106;5.534;2023-07-31T11:18:02;3.70;;;3.22;;
18296;SDS011;18066;52.106;5.534;2023-07-31T11:20:30;6.30;;;4.30;;
18296;SDS011;18066;52.106;5.534;2023-07-31T11:23:00;3.67;;;3.25;;
18296;SDS011;18066;52.106;5.534;2023-07-31T11:25:30;2.60;;;2.35;;
18296;SDS011;18066;52.106;5.534;2023-07-31T11:27:57;3.10;;;2.60;;
18296;SDS011;18066;52.106;5.534;2023-07-31T11:30:28;3.15;;;2.40;;
18296;SDS011;18066;52.106;5.534;2023-07-31T11:32:55;2.40;;;2.20;;
18296;SDS011;18066;52.106;5.534;2023-07-31T11:35:22;4.40;;;2.47;;
18296;SDS011;18066;52.106;5.534;2023-07-31T11:37:49;2.85;;;2.53;;
18296;SDS011;18066;52.106;5.534;2023-07-31T11:40:16;2.95;;;2.58;;
18296;SDS011;18066;52.106;5.534;2023-07-31T11:42:44;3.53;;;2.80;;
18296;SDS011;18066;52.106;5.534;2023-07-31T11:45:11;7.18;;;3.60;;
18296;SDS011;18066;52.106;5.534;2023-07-31T11:47:38;3.75;;;3.22;;
18296;SDS011;18066;52.106;5.534;2023-07-31T11:50:06;4.65;;;3.67;;
18296;SDS011;18066;52.106;5.534;2023-07-31T11:52:37;4.35;;;3.70;;
18296;SDS011;18066;52.106;5.534;2023-07-31T11:55:08;6.43;;;3.58;;
18296;SDS011;18066;52.106;5.534;2023-07-31T11:57:36;4.28;;;3.40;;
18296;SDS011;18066;52.106;5.534;2023-07-31T12:00:08;5.07;;;3.63;;
18296;SDS011;18066;52.106;5.534;2023-07-31T12:02:38;5.80;;;4.30;;
18296;SDS011;18066;52.106;5.534;2023-07-31T12:05:06;5.55;;;4.60;;
18296;SDS011;18066;52.106;5.534;2023-07-31T12:10:25;7.05;;;4.40;;
18296;SDS011;18066;52.106;5.534;2023-07-31T12:12:57;5.25;;;3.88;;
18296;SDS011;18066;52.106;5.534;2023-07-31T12:15:35;5.55;;;3.65;;
18296;SDS011;18066;52.106;5.534;2023-07-31T12:18:05;4.35;;;3.90;;
18296;SDS011;18066;52.106;5.534;2023-07-31T12:20:33;4.57;;;3.55;;
18296;SDS011;18066;52.106;5.534;2023-07-31T12:23:00;3.47;;;2.90;;
18296;SDS011;18066;52.106;5.534;2023-07-31T12:25:31;3.83;;;3.22;;
18296;SDS011;18066;52.106;5.534;2023-07-31T12:28:08;4.70;;;2.80;;
18296;SDS011;18066;52.106;5.534;2023-07-31T12:30:39;3.10;;;2.58;;
18296;SDS011;18066;52.106;5.534;2023-07-31T12:33:12;2.78;;;2.55;;
18296;SDS011;18066;52.106;5.534;2023-07-31T12:35:43;3.22;;;2.85;;
18296;SDS011;18066;52.106;5.534;2023-07-31T12:38:12;2.92;;;2.50;;
18296;SDS011;18066;52.106;5.534;2023-07-31T12:40:40;3.78;;;2.70;;
18296;SDS011;18066;52.106;5.534;2023-07-31T12:43:07;4.28;;;2.90;;
18296;SDS011;18066;52.106;5.534;2023-07-31T13:05:36;4.80;;;3.90;;
18296;SDS011;18066;52.106;5.534;2023-07-31T13:08:06;4.47;;;3.58;;
18296;SDS011;18066;52.106;5.534;2023-07-31T13:10:33;5.22;;;3.70;;
18296;SDS011;18066;52.106;5.534;2023-07-31T13:13:00;5.63;;;3.70;;
18296;SDS011;18066;52.106;5.534;2023-07-31T13:15:27;6.10;;;4.10;;
18296;SDS011;18066;52.106;5.534;2023-07-31T13:17:54;6.22;;;4.03;;
18296;SDS011;18066;52.106;5.534;2023-07-31T13:20:21;7.18;;;3.60;;
18296;SDS011;18066;52.106;5.534;2023-07-31T13:22:49;5.80;;;4.38;;
18296;SDS011;18066;52.106;5.534;2023-07-31T13:25:16;7.10;;;4.50;;
18296;SDS011;18066;52.106;5.534;2023-07-31T13:27:44;5.05;;;3.97;;
18296;SDS011;18066;52.106;5.534;2023-07-31T13:30:11;4.90;;;4.40;;
18296;SDS011;18066;52.106;5.534;2023-07-31T13:32:38;5.50;;;4.50;;
18296;SDS011;18066;52.106;5.534;2023-07-31T13:35:05;4.70;;;4.20;;
18296;SDS011;18066;52.106;5.534;2023-07-31T13:37:35;5.93;;;4.03;;
18296;SDS011;18066;52.106;5.534;2023-07-31T13:40:24;4.57;;;3.35;;
18296;SDS011;18066;52.106;5.534;2023-07-31T13:43:00;7.68;;;4.90;;
18296;SDS011;18066;52.106;5.534;2023-07-31T13:45:32;5.68;;;4.78;;
18296;SDS011;18066;52.106;5.534;2023-07-31T13:48:15;10.00;;;5.25;;
18296;SDS011;18066;52.106;5.534;2023-07-31T13:50:49;6.53;;;5.55;;
18296;SDS011;18066;52.106;5.534;2023-07-31T13:53:34;5.95;;;5.28;;
18296;SDS011;18066;52.106;5.534;2023-07-31T13:56:18;7.85;;;5.80;;
18296;SDS011;18066;52.106;5.534;2023-07-31T13:58:45;9.15;;;5.80;;
18296;SDS011;18066;52.106;5.534;2023-07-31T14:01:15;6.90;;;6.00;;
18296;SDS011;18066;52.106;5.534;2023-07-31T14:03:58;7.55;;;6.40;;
18296;SDS011;18066;52.106;5.534;2023-07-31T14:06:29;7.30;;;6.07;;
18296;SDS011;18066;52.106;5.534;2023-07-31T14:09:07;8.55;;;6.63;;
18296;SDS011;18066;52.106;5.534;2023-07-31T14:11:51;8.48;;;7.35;;
18296;SDS011;18066;52.106;5.534;2023-07-31T14:18:29;12.55;;;7.70;;
18296;SDS011;18066;52.106;5.534;2023-07-31T15:00:53;7.50;;;5.90;;
18296;SDS011;18066;52.106;5.534;2023-07-31T15:03:21;9.77;;;6.20;;
18296;SDS011;18066;52.106;5.534;2023-07-31T15:05:47;10.10;;;6.25;;
18296;SDS011;18066;52.106;5.534;2023-07-31T15:08:15;12.52;;;6.28;;
18296;SDS011;18066;52.106;5.534;2023-07-31T15:10:41;6.40;;;5.65;;
18296;SDS011;18066;52.106;5.534;2023-07-31T15:13:08;8.50;;;6.28;;
18296;SDS011;18066;52.106;5.534;2023-07-31T15:15:37;8.43;;;6.07;;
18296;SDS011;18066;52.106;5.534;2023-07-31T15:18:05;9.48;;;6.28;;
18296;SDS011;18066;52.106;5.534;2023-07-31T15:20:32;8.15;;;5.38;;
18296;SDS011;18066;52.106;5.534;2023-07-31T15:22:59;11.38;;;6.00;;
18296;SDS011;18066;52.106;5.534;2023-07-31T15:25:26;9.68;;;5.75;;
18296;SDS011;18066;52.106;5.534;2023-07-31T15:27:54;8.18;;;5.72;;
18296;SDS011;18066;52.106;5.534;2023-07-31T15:30:20;8.02;;;5.72;;
18296;SDS011;18066;52.106;5.534;2023-07-31T15:32:48;9.98;;;6.05;;
18296;SDS011;18066;52.106;5.534;2023-07-31T15:35:16;9.13;;;5.47;;
18296;SDS011;18066;52.106;5.534;2023-07-31T15:37:43;13.23;;;6.53;;
18296;SDS011;18066;52.106;5.534;2023-07-31T15:40:10;11.95;;;6.18;;
18296;SDS011;18066;52.106;5.534;2023-07-31T15:42:37;8.93;;;5.85;;
18296;SDS011;18066;52.106;5.534;2023-07-31T15:45:07;8.35;;;5.50;;
18296;SDS011;18066;52.106;5.534;2023-07-31T15:47:37;7.38;;;5.05;;
18296;SDS011;18066;52.106;5.534;2023-07-31T15:50:04;9.90;;;4.80;;
18296;SDS011;18066;52.106;5.534;2023-07-31T15:52:33;5.85;;;4.13;;
18296;SDS011;18066;52.106;5.534;2023-07-31T15:55:06;7.78;;;4.13;;
18296;SDS011;18066;52.106;5.534;2023-07-31T15:57:40;5.90;;;3.67;;
18296;SDS011;18066;52.106;5.534;2023-07-31T16:00:39;6.22;;;3.63;;
18296;SDS011;18066;52.106;5.534;2023-07-31T16:04:09;4.35;;;2.90;;
18296;SDS011;18066;52.106;5.534;2023-07-31T16:06:52;6.75;;;3.55;;
18296;SDS011;18066;52.106;5.534;2023-07-31T16:09:30;4.20;;;3.15;;
18296;SDS011;18066;52.106;5.534;2023-07-31T16:12:01;5.50;;;3.20;;
18296;SDS011;18066;52.106;5.534;2023-07-31T16:14:43;4.65;;;3.13;;
18296;SDS011;18066;52.106;5.534;2023-07-31T16:17:10;4.55;;;2.63;;
18296;SDS011;18066;52.106;5.534;2023-07-31T16:19:36;3.45;;;2.00;;
18296;SDS011;18066;52.106;5.534;2023-07-31T16:22:04;2.50;;;1.80;;
18296;SDS011;18066;52.106;5.534;2023-07-31T16:24:35;1.92;;;1.70;;
18296;SDS011;18066;52.106;5.534;2023-07-31T16:27:02;2.78;;;1.80;;
18296;SDS011;18066;52.106;5.534;2023-07-31T16:29:29;3.10;;;1.58;;
18296;SDS011;18066;52.106;5.534;2023-07-31T16:31:56;3.78;;;1.60;;
18296;SDS011;18066;52.106;5.534;2023-07-31T16:34:23;2.72;;;1.63;;
18296;SDS011;18066;52.106;5.534;2023-07-31T16:36:51;2.55;;;1.45;;
18296;SDS011;18066;52.106;5.534;2023-07-31T17:03:46;2.70;;;0.98;;
18296;SDS011;18066;52.106;5.534;2023-07-31T17:06:13;0.82;;;0.70;;
18296;SDS011;18066;52.106;5.534;2023-07-31T17:08:40;1.00;;;0.80;;
18296;SDS011;18066;52.106;5.534;2023-07-31T17:11:07;1.33;;;0.82;;
18296;SDS011;18066;52.106;5.534;2023-07-31T17:13:34;1.27;;;0.82;;
18296;SDS011;18066;52.106;5.534;2023-07-31T17:16:01;1.60;;;1.20;;
18296;SDS011;18066;52.106;5.534;2023-07-31T17:18:28;1.10;;;1.00;;
18296;SDS011;18066;52.106;5.534;2023-07-31T17:20:58;2.67;;;1.10;;
18296;SDS011;18066;52.106;5.534;2023-07-31T17:23:25;1.08;;;0.82;;
18296;SDS011;18066;52.106;5.534;2023-07-31T17:25:52;0.95;;;0.95;;
18296;SDS011;18066;52.106;5.534;2023-07-31T17:28:19;1.38;;;1.15;;
18296;SDS011;18066;52.106;5.534;2023-07-31T17:30:47;0.95;;;0.93;;
18296;SDS011;18066;52.106;5.534;2023-07-31T17:33:14;1.48;;;1.10;;
18296;SDS011;18066;52.106;5.534;2023-07-31T17:35:42;1.40;;;1.13;;
18296;SDS011;18066;52.106;5.534;2023-07-31T17:38:11;2.25;;;1.30;;
18296;SDS011;18066;52.106;5.534;2023-07-31T17:40:38;3.97;;;1.20;;
18296;SDS011;18066;52.106;5.534;2023-07-31T17:43:06;2.00;;;1.20;;
18296;SDS011;18066;52.106;5.534;2023-07-31T17:45:33;2.03;;;1.27;;
18296;SDS011;18066;52.106;5.534;2023-07-31T17:48:01;4.25;;;1.20;;
18296;SDS011;18066;52.106;5.534;2023-07-31T17:50:28;1.85;;;1.33;;
18296;SDS011;18066;52.106;5.534;2023-07-31T17:52:56;1.73;;;1.10;;
18296;SDS011;18066;52.106;5.534;2023-07-31T17:55:24;1.13;;;1.00;;
18296;SDS011;18066;52.106;5.534;2023-07-31T17:57:51;2.47;;;1.25;;
18296;SDS011;18066;52.106;5.534;2023-07-31T18:00:19;3.00;;;1.10;;
18296;SDS011;18066;52.106;5.534;2023-07-31T19:12:27;3.00;;;1.45;;
18296;SDS011;18066;52.106;5.534;2023-07-31T19:14:56;2.10;;;1.63;;
18296;SDS011;18066;52.106;5.534;2023-07-31T19:17:23;1.65;;;1.30;;
18296;SDS011;18066;52.106;5.534;2023-07-31T19:19:50;2.25;;;1.40;;
18296;SDS011;18066;52.106;5.534;2023-07-31T19:22:17;1.83;;;1.38;;
18296;SDS011;18066;52.106;5.534;2023-07-31T19:24:43;5.35;;;1.40;;
18296;SDS011;18066;52.106;5.534;2023-07-31T19:27:10;4.80;;;1.48;;
18296;SDS011;18066;52.106;5.534;2023-07-31T19:29:39;4.55;;;1.77;;
18296;SDS011;18066;52.106;5.534;2023-07-31T19:32:06;2.17;;;1.60;;
18296;SDS011;18066;52.106;5.534;2023-07-31T19:34:35;2.38;;;1.60;;
18296;SDS011;18066;52.106;5.534;2023-07-31T19:37:02;3.92;;;1.60;;
18296;SDS011;18066;52.106;5.534;2023-07-31T19:39:33;2.30;;;1.77;;
18296;SDS011;18066;52.106;5.534;2023-07-31T19:45:18;2.90;;;1.50;;
18296;SDS011;18066;52.106;5.534;2023-07-31T19:47:45;3.60;;;1.52;;
18296;SDS011;18066;52.106;5.534;2023-07-31T19:50:12;2.35;;;1.60;;
18296;SDS011;18066;52.106;5.534;2023-07-31T19:52:42;3.88;;;1.80;;
18296;SDS011;18066;52.106;5.534;2023-07-31T19:55:09;3.65;;;1.60;;